sensor_id;sensor_type;location;lat;lon;timestamp;pressure;altitude;pressure_sealevel;temperature;humidity
56894;BME280;43392;50.078;13.704;2023-07-30T00:00:49;96529.50;;;18.20;84.09
56894;BME280;43392;50.078;13.704;2023-07-30T00:03:16;96521.69;;;18.18;84.08
56894;BME280;43392;50.078;13.704;2023-07-30T00:05:51;96524.41;;;18.18;83.88
56894;BME280;43392;50.078;13.704;2023-07-30T00:08:19;96527.91;;;18.19;83.88
56894;BME280;43392;50.078;13.704;2023-07-30T00:10:46;96526.66;;;18.16;84.01
56894;BME280;43392;50.078;13.704;2023-07-30T00:13:12;96521.56;;;18.15;84.01
56894;BME280;43392;50.078;13.704;2023-07-30T00:15:39;96512.63;;;18.14;84.41
56894;BME280;43392;50.078;13.704;2023-07-30T00:18:06;96513.75;;;18.13;84.32
56894;BME280;43392;50.078;13.704;2023-07-30T00:20:34;96510.25;;;18.13;83.90
56894;BME280;43392;50.078;13.704;2023-07-30T00:23:00;96514.88;;;18.12;83.98
56894;BME280;43392;50.078;13.704;2023-07-30T00:25:28;96514.56;;;18.14;83.88
56894;BME280;43392;50.078;13.704;2023-07-30T00:27:55;96512.16;;;18.12;83.87
56894;BME280;43392;50.078;13.704;2023-07-30T00:30:21;96514.88;;;18.12;83.93
56894;BME280;43392;50.078;13.704;2023-07-30T00:32:48;96514.75;;;18.09;84.21
56894;BME280;43392;50.078;13.704;2023-07-30T00:35:14;96516.81;;;18.12;83.63
56894;BME280;43392;50.078;13.704;2023-07-30T00:37:41;96514.56;;;18.14;83.93
56894;BME280;43392;50.078;13.704;2023-07-30T00:40:08;96511.03;;;18.13;83.80
56894;BME280;43392;50.078;13.704;2023-07-30T00:42:36;96515.66;;;18.13;84.01
56894;BME280;43392;50.078;13.704;2023-07-30T00:45:04;96503.56;;;18.10;84.79
56894;BME280;43392;50.078;13.704;2023-07-30T00:47:31;96505.81;;;18.08;84.63
56894;BME280;43392;50.078;13.704;2023-07-30T00:49:58;96505.81;;;18.08;84.79
56894;BME280;43392;50.078;13.704;2023-07-30T00:52:25;96505.81;;;18.08;85.54
56894;BME280;43392;50.078;13.704;2023-07-30T00:54:53;96501.06;;;18.05;85.85
56894;BME280;43392;50.078;13.704;2023-07-30T00:57:21;96501.06;;;18.05;86.28
56894;BME280;43392;50.078;13.704;2023-07-30T00:59:50;96502.97;;;18.05;86.12
56894;BME280;43392;50.078;13.704;2023-07-30T01:02:17;96509.19;;;18.05;86.39
56894;BME280;43392;50.078;13.704;2023-07-30T01:04:44;96498.69;;;18.04;86.13
56894;BME280;43392;50.078;13.704;2023-07-30T01:07:10;96505.56;;;18.01;85.59
56894;BME280;43392;50.078;13.704;2023-07-30T01:09:37;96502.72;;;17.98;85.45
56894;BME280;43392;50.078;13.704;2023-07-30T01:12:05;96497.38;;;17.89;85.59
56894;BME280;43392;50.078;13.704;2023-07-30T01:14:33;96504.28;;;17.86;85.59
56894;BME280;43392;50.078;13.704;2023-07-30T01:17:01;96507.84;;;17.78;86.10
56894;BME280;43392;50.078;13.704;2023-07-30T01:19:28;96506.72;;;17.79;86.65
56894;BME280;43392;50.078;13.704;2023-07-30T01:21:57;96500.31;;;17.84;86.57
56894;BME280;43392;50.078;13.704;2023-07-30T01:24:24;96506.53;;;17.84;86.67
56894;BME280;43392;50.078;13.704;2023-07-30T01:26:55;96503.81;;;17.84;86.74
56894;BME280;43392;50.078;13.704;2023-07-30T01:29:25;96515.31;;;17.81;86.92
56894;BME280;43392;50.078;13.704;2023-07-30T01:31:56;96503.06;;;17.75;87.47
56894;BME280;43392;50.078;13.704;2023-07-30T01:34:23;96502.31;;;17.75;87.80
56894;BME280;43392;50.078;13.704;2023-07-30T01:36:51;96507.03;;;17.78;87.91
56894;BME280;43392;50.078;13.704;2023-07-30T01:39:21;96501.97;;;17.76;87.70
56894;BME280;43392;50.078;13.704;2023-07-30T01:41:47;96509.91;;;17.81;87.52
56894;BME280;43392;50.078;13.704;2023-07-30T01:44:14;96506.38;;;17.81;87.81
56894;BME280;43392;50.078;13.704;2023-07-30T01:46:41;96498.44;;;17.76;88.11
56894;BME280;43392;50.078;13.704;2023-07-30T01:49:07;96497.78;;;17.79;88.44
56894;BME280;43392;50.078;13.704;2023-07-30T01:51:34;96512.25;;;17.83;88.29
56894;BME280;43392;50.078;13.704;2023-07-30T01:54:00;96511.81;;;17.81;87.97
56894;BME280;43392;50.078;13.704;2023-07-30T01:56:28;96510.44;;;17.75;87.34
56894;BME280;43392;50.078;13.704;2023-07-30T01:58:55;96521.59;;;17.73;87.59
56894;BME280;43392;50.078;13.704;2023-07-30T02:01:21;96512.22;;;17.71;87.69
56894;BME280;43392;50.078;13.704;2023-07-30T02:03:48;96527.72;;;17.70;87.83
56894;BME280;43392;50.078;13.704;2023-07-30T02:06:14;96512.22;;;17.71;87.80
56894;BME280;43392;50.078;13.704;2023-07-30T02:08:41;96515.41;;;17.73;88.23
56894;BME280;43392;50.078;13.704;2023-07-30T02:11:08;96510.75;;;17.73;88.45
56894;BME280;43392;50.078;13.704;2023-07-30T02:13:36;96520.94;;;17.76;88.22
56894;BME280;43392;50.078;13.704;2023-07-30T02:16:02;96516.31;;;17.77;88.35
56894;BME280;43392;50.078;13.704;2023-07-30T02:18:29;96521.28;;;17.75;89.08
56894;BME280;43392;50.078;13.704;2023-07-30T02:20:56;96519.22;;;17.72;89.01
56894;BME280;43392;50.078;13.704;2023-07-30T02:23:22;96509.63;;;17.74;88.92
56894;BME280;43392;50.078;13.704;2023-07-30T02:25:49;96502.31;;;17.75;89.12
56894;BME280;43392;50.078;13.704;2023-07-30T02:28:16;96512.00;;;17.76;89.60
56894;BME280;43392;50.078;13.704;2023-07-30T02:30:44;96509.63;;;17.74;89.59
56894;BME280;43392;50.078;13.704;2023-07-30T02:33:10;96502.97;;;17.72;89.54
56894;BME280;43392;50.078;13.704;2023-07-30T02:35:37;96504.56;;;17.73;89.69
56894;BME280;43392;50.078;13.704;2023-07-30T02:38:03;96497.19;;;17.73;89.95
56894;BME280;43392;50.078;13.704;2023-07-30T02:40:30;96501.03;;;17.72;89.96
56894;BME280;43392;50.078;13.704;2023-07-30T02:42:57;96496.06;;;17.74;89.88
56894;BME280;43392;50.078;13.704;2023-07-30T02:45:24;96500.25;;;17.72;90.07
56894;BME280;43392;50.078;13.704;2023-07-30T02:47:52;96498.34;;;17.72;90.03
56894;BME280;43392;50.078;13.704;2023-07-30T02:50:19;96497.88;;;17.70;90.03
56894;BME280;43392;50.078;13.704;2023-07-30T02:52:45;96502.16;;;17.71;90.41
56894;BME280;43392;50.078;13.704;2023-07-30T02:55:12;96505.22;;;17.70;90.61
56894;BME280;43392;50.078;13.704;2023-07-30T02:57:39;96505.06;;;17.66;90.38
56894;BME280;43392;50.078;13.704;2023-07-30T03:00:06;96504.59;;;17.64;90.79
56894;BME280;43392;50.078;13.704;2023-07-30T03:02:34;96496.94;;;17.66;90.75
56894;BME280;43392;50.078;13.704;2023-07-30T03:05:02;96491.19;;;17.68;90.79
56894;BME280;43392;50.078;13.704;2023-07-30T03:07:29;96495.03;;;17.67;90.74
56894;BME280;43392;50.078;13.704;2023-07-30T03:09:55;96487.34;;;17.69;90.87
56894;BME280;43392;50.078;13.704;2023-07-30T03:12:22;96490.41;;;17.67;90.65
56894;BME280;43392;50.078;13.704;2023-07-30T03:14:48;96491.84;;;17.65;90.62
56894;BME280;43392;50.078;13.704;2023-07-30T03:17:15;96482.13;;;17.64;91.06
56894;BME280;43392;50.078;13.704;2023-07-30T03:19:42;96490.25;;;17.64;91.13
56894;BME280;43392;50.078;13.704;2023-07-30T03:22:10;96487.53;;;17.64;91.39
56894;BME280;43392;50.078;13.704;2023-07-30T03:24:37;96491.50;;;17.66;91.66
56894;BME280;43392;50.078;13.704;2023-07-30T03:27:04;96488.78;;;17.66;91.38
56894;BME280;43392;50.078;13.704;2023-07-30T03:29:30;96486.88;;;17.67;91.55
56894;BME280;43392;50.078;13.704;2023-07-30T03:31:57;96486.88;;;17.67;91.47
56894;BME280;43392;50.078;13.704;2023-07-30T03:34:23;96490.41;;;17.67;91.46
56894;BME280;43392;50.078;13.704;2023-07-30T03:36:50;96495.03;;;17.67;91.70
56894;BME280;43392;50.078;13.704;2023-07-30T03:39:18;96480.66;;;17.66;91.79
56894;BME280;43392;50.078;13.704;2023-07-30T03:41:45;96477.94;;;17.66;91.26
56894;BME280;43392;50.078;13.704;2023-07-30T03:44:11;96473.00;;;17.68;91.53
56894;BME280;43392;50.078;13.704;2023-07-30T03:46:38;96477.44;;;17.73;91.23
56894;BME280;43392;50.078;13.704;2023-07-30T03:49:04;96475.19;;;17.75;91.08
56894;BME280;43392;50.078;13.704;2023-07-30T03:51:31;96469.75;;;17.75;91.18
56894;BME280;43392;50.078;13.704;2023-07-30T03:53:58;96478.81;;;17.79;91.13
56894;BME280;43392;50.078;13.704;2023-07-30T03:56:26;96482.44;;;17.83;91.01
56894;BME280;43392;50.078;13.704;2023-07-30T03:58:53;96478.59;;;17.84;90.88
56894;BME280;43392;50.078;13.704;2023-07-30T04:01:19;96480.75;;;17.90;90.89
56894;BME280;43392;50.078;13.704;2023-07-30T04:03:46;96492.41;;;17.91;90.46
56894;BME280;43392;50.078;13.704;2023-07-30T04:06:12;96499.75;;;17.90;90.52
56894;BME280;43392;50.078;13.704;2023-07-30T04:08:39;96508.84;;;17.95;90.25
56894;BME280;43392;50.078;13.704;2023-07-30T04:11:05;96511.66;;;17.98;90.48
56894;BME280;43392;50.078;13.704;2023-07-30T04:13:34;96503.31;;;18.03;89.86
56894;BME280;43392;50.078;13.704;2023-07-30T04:16:00;96503.09;;;18.08;89.42
56894;BME280;43392;50.078;13.704;2023-07-30T04:18:27;96505.47;;;18.10;89.52
56894;BME280;43392;50.078;13.704;2023-07-30T04:20:54;96494.97;;;18.08;88.92
56894;BME280;43392;50.078;13.704;2023-07-30T04:23:21;96507.19;;;18.14;89.12
56894;BME280;43392;50.078;13.704;2023-07-30T04:25:48;96504.16;;;18.16;88.66
56894;BME280;43392;50.078;13.704;2023-07-30T04:28:15;96512.41;;;18.19;88.32
56894;BME280;43392;50.078;13.704;2023-07-30T04:30:43;96503.16;;;18.20;88.40
56894;BME280;43392;50.078;13.704;2023-07-30T04:33:12;96501.22;;;18.21;88.19
56894;BME280;43392;50.078;13.704;2023-07-30T04:35:39;96506.31;;;18.22;87.77
56894;BME280;43392;50.078;13.704;2023-07-30T04:38:05;96503.59;;;18.22;88.08
56894;BME280;43392;50.078;13.704;2023-07-30T04:40:32;96500.09;;;18.22;87.89
56894;BME280;43392;50.078;13.704;2023-07-30T04:42:59;96503.94;;;18.21;88.08
56894;BME280;43392;50.078;13.704;2023-07-30T04:45:25;96510.94;;;18.22;87.83
56894;BME280;43392;50.078;13.704;2023-07-30T04:47:53;96508.56;;;18.20;87.88
56894;BME280;43392;50.078;13.704;2023-07-30T04:50:20;96517.84;;;18.19;88.12
56894;BME280;43392;50.078;13.704;2023-07-30T04:52:46;96519.78;;;18.19;87.95
56894;BME280;43392;50.078;13.704;2023-07-30T04:55:13;96524.84;;;18.20;87.70
56894;BME280;43392;50.078;13.704;2023-07-30T04:57:39;96523.75;;;18.21;87.88
56894;BME280;43392;50.078;13.704;2023-07-30T05:00:07;96520.53;;;18.19;87.56
56894;BME280;43392;50.078;13.704;2023-07-30T05:02:33;96520.53;;;18.19;87.79
56894;BME280;43392;50.078;13.704;2023-07-30T05:05:01;96524.41;;;18.18;87.60
56894;BME280;43392;50.078;13.704;2023-07-30T05:07:28;96531.09;;;18.21;87.79
56894;BME280;43392;50.078;13.704;2023-07-30T05:09:55;96523.75;;;18.21;87.43
56894;BME280;43392;50.078;13.704;2023-07-30T05:12:21;96528.69;;;18.19;87.38
56894;BME280;43392;50.078;13.704;2023-07-30T05:14:48;96525.66;;;18.21;87.43
56894;BME280;43392;50.078;13.704;2023-07-30T05:17:14;96541.16;;;18.20;87.26
56894;BME280;43392;50.078;13.704;2023-07-30T05:19:41;96544.19;;;18.19;87.06
56894;BME280;43392;50.078;13.704;2023-07-30T05:22:09;96555.06;;;18.19;87.30
56894;BME280;43392;50.078;13.704;2023-07-30T05:24:36;96557.38;;;18.08;87.55
56894;BME280;43392;50.078;13.704;2023-07-30T05:27:03;96561.09;;;18.04;88.25
56894;BME280;43392;50.078;13.704;2023-07-30T05:29:30;96565.00;;;17.94;89.02
56894;BME280;43392;50.078;13.704;2023-07-30T05:31:56;96564.75;;;17.87;89.44
56894;BME280;43392;50.078;13.704;2023-07-30T05:34:23;96570.47;;;17.85;89.76
56894;BME280;43392;50.078;13.704;2023-07-30T05:36:50;96572.09;;;17.86;89.84
56894;BME280;43392;50.078;13.704;2023-07-30T05:39:18;96562.03;;;17.87;89.83
56894;BME280;43392;50.078;13.704;2023-07-30T05:41:44;96564.13;;;17.81;90.51
56894;BME280;43392;50.078;13.704;2023-07-30T05:44:11;96569.56;;;17.81;90.51
56894;BME280;43392;50.078;13.704;2023-07-30T05:46:37;96573.53;;;17.84;90.42
56894;BME280;43392;50.078;13.704;2023-07-30T05:49:04;96560.88;;;17.88;90.40
56894;BME280;43392;50.078;13.704;2023-07-30T05:51:30;96567.91;;;17.89;90.46
56894;BME280;43392;50.078;13.704;2023-07-30T05:53:57;96577.63;;;17.90;90.83
56894;BME280;43392;50.078;13.704;2023-07-30T05:56:25;96569.63;;;17.94;90.87
56894;BME280;43392;50.078;13.704;2023-07-30T05:58:52;96568.28;;;18.00;90.50
56894;BME280;43392;50.078;13.704;2023-07-30T06:01:19;96571.94;;;18.04;90.52
56894;BME280;43392;50.078;13.704;2023-07-30T06:03:45;96568.56;;;18.07;90.24
56894;BME280;43392;50.078;13.704;2023-07-30T06:06:12;96570.94;;;18.08;90.19
56894;BME280;43392;50.078;13.704;2023-07-30T06:08:39;96561.69;;;18.09;89.62
56894;BME280;43392;50.078;13.704;2023-07-30T06:11:05;96566.31;;;18.09;89.87
56894;BME280;43392;50.078;13.704;2023-07-30T06:13:33;96557.38;;;18.08;89.20
56894;BME280;43392;50.078;13.704;2023-07-30T06:16:00;96558.97;;;18.09;89.74
56894;BME280;43392;50.078;13.704;2023-07-30T06:18:27;96559.28;;;18.08;89.61
56894;BME280;43392;50.078;13.704;2023-07-30T06:20:53;96560.09;;;18.08;89.70
56894;BME280;43392;50.078;13.704;2023-07-30T06:23:20;96554.66;;;18.08;89.96
56894;BME280;43392;50.078;13.704;2023-07-30T06:25:46;96551.81;;;18.05;89.78
56894;BME280;43392;50.078;13.704;2023-07-30T06:28:13;96557.72;;;18.07;89.68
56894;BME280;43392;50.078;13.704;2023-07-30T06:30:41;96561.56;;;18.06;89.66
56894;BME280;43392;50.078;13.704;2023-07-30T06:33:07;96578.16;;;18.04;89.79
56894;BME280;43392;50.078;13.704;2023-07-30T06:35:34;96578.81;;;18.01;89.97
56894;BME280;43392;50.078;13.704;2023-07-30T06:38:01;96588.88;;;18.01;89.84
56894;BME280;43392;50.078;13.704;2023-07-30T06:40:27;96589.22;;;17.99;90.30
56894;BME280;43392;50.078;13.704;2023-07-30T06:42:54;96594.19;;;17.97;90.29
56894;BME280;43392;50.078;13.704;2023-07-30T06:45:20;96585.91;;;17.94;90.51
56894;BME280;43392;50.078;13.704;2023-07-30T06:47:48;96604.44;;;17.92;90.71
56894;BME280;43392;50.078;13.704;2023-07-30T06:50:15;96611.31;;;17.89;90.90
56894;BME280;43392;50.078;13.704;2023-07-30T06:52:42;96652.66;;;17.86;90.91
56894;BME280;43392;50.078;13.704;2023-07-30T06:55:46;96658.91;;;17.78;91.13
56894;BME280;43392;50.078;13.704;2023-07-30T06:58:13;96649.53;;;17.75;91.77
56894;BME280;43392;50.078;13.704;2023-07-30T07:03:40;96633.38;;;17.50;91.91
56894;BME280;43392;50.078;13.704;2023-07-30T07:06:07;96644.56;;;17.48;91.78
56894;BME280;43392;50.078;13.704;2023-07-30T07:08:34;96642.84;;;17.44;91.31
56894;BME280;43392;50.078;13.704;2023-07-30T07:11:00;96635.00;;;17.42;91.28
56894;BME280;43392;50.078;13.704;2023-07-30T07:13:27;96633.91;;;17.43;91.10
56894;BME280;43392;50.078;13.704;2023-07-30T07:15:53;96635.16;;;17.46;91.02
56894;BME280;43392;50.078;13.704;2023-07-30T07:18:20;96639.94;;;17.49;91.15
56894;BME280;43392;50.078;13.704;2023-07-30T07:20:48;96640.09;;;17.52;91.08
56894;BME280;43392;50.078;13.704;2023-07-30T07:23:14;96641.38;;;17.55;91.24
56894;BME280;43392;50.078;13.704;2023-07-30T07:25:41;96641.03;;;17.56;91.40
56894;BME280;43392;50.078;13.704;2023-07-30T07:28:08;96628.72;;;17.59;90.90
56894;BME280;43392;50.078;13.704;2023-07-30T07:30:35;96626.50;;;17.61;90.73
56894;BME280;43392;50.078;13.704;2023-07-30T07:33:02;96627.44;;;17.65;91.17
56894;BME280;43392;50.078;13.704;2023-07-30T07:35:30;96622.13;;;17.68;90.92
56894;BME280;43392;50.078;13.704;2023-07-30T07:37:58;96622.28;;;17.72;90.94
56894;BME280;43392;50.078;13.704;2023-07-30T07:40:24;96613.16;;;17.76;91.35
56894;BME280;43392;50.078;13.704;2023-07-30T07:42:51;96615.53;;;17.78;91.51
56894;BME280;43392;50.078;13.704;2023-07-30T07:45:18;96615.34;;;17.83;91.66
56894;BME280;43392;50.078;13.704;2023-07-30T07:47:44;96623.28;;;17.88;91.67
56894;BME280;43392;50.078;13.704;2023-07-30T07:50:11;96622.63;;;17.91;91.72
56894;BME280;43392;50.078;13.704;2023-07-30T07:52:38;96620.84;;;17.95;91.98
56894;BME280;43392;50.078;13.704;2023-07-30T07:55:06;96616.34;;;17.99;92.31
56894;BME280;43392;50.078;13.704;2023-07-30T07:57:33;96618.88;;;18.04;92.74
56894;BME280;43392;50.078;13.704;2023-07-30T08:00:00;96631.09;;;18.10;92.76
56894;BME280;43392;50.078;13.704;2023-07-30T08:02:26;96620.06;;;18.15;92.57
56894;BME280;43392;50.078;13.704;2023-07-30T08:04:53;96624.94;;;18.22;92.51
56894;BME280;43392;50.078;13.704;2023-07-30T08:07:19;96624.41;;;18.28;92.16
56894;BME280;43392;50.078;13.704;2023-07-30T08:09:46;96627.84;;;18.37;92.18
56894;BME280;43392;50.078;13.704;2023-07-30T08:12:14;96627.00;;;18.45;92.14
56894;BME280;43392;50.078;13.704;2023-07-30T08:14:41;96624.56;;;18.52;92.16
56894;BME280;43392;50.078;13.704;2023-07-30T08:17:07;96615.97;;;18.63;92.01
56894;BME280;43392;50.078;13.704;2023-07-30T08:19:34;96618.94;;;18.70;91.72
56894;BME280;43392;50.078;13.704;2023-07-30T08:22:00;96618.75;;;18.75;91.76
56894;BME280;43392;50.078;13.704;2023-07-30T08:24:27;96622.38;;;18.79;91.62
56894;BME280;43392;50.078;13.704;2023-07-30T08:26:54;96622.59;;;18.86;91.21
56894;BME280;43392;50.078;13.704;2023-07-30T08:29:21;96623.88;;;19.00;90.78
56894;BME280;43392;50.078;13.704;2023-07-30T08:31:48;96626.97;;;19.11;90.45
56894;BME280;43392;50.078;13.704;2023-07-30T08:34:15;96627.31;;;19.21;90.49
56894;BME280;43392;50.078;13.704;2023-07-30T08:36:41;96630.38;;;19.32;90.27
56894;BME280;43392;50.078;13.704;2023-07-30T08:39:08;96623.94;;;19.37;90.14
56894;BME280;43392;50.078;13.704;2023-07-30T08:41:35;96625.66;;;19.41;89.37
56894;BME280;43392;50.078;13.704;2023-07-30T08:44:01;96616.81;;;19.44;89.23
56894;BME280;43392;50.078;13.704;2023-07-30T08:46:29;96619.97;;;19.46;88.92
56894;BME280;43392;50.078;13.704;2023-07-30T08:48:56;96627.34;;;19.46;89.12
56894;BME280;43392;50.078;13.704;2023-07-30T08:51:23;96626.22;;;19.47;88.89
56894;BME280;43392;50.078;13.704;2023-07-30T08:53:51;96630.19;;;19.49;88.83
56894;BME280;43392;50.078;13.704;2023-07-30T08:56:18;96627.03;;;19.59;88.60
56894;BME280;43392;50.078;13.704;2023-07-30T08:58:46;96616.00;;;19.68;88.56
56894;BME280;43392;50.078;13.704;2023-07-30T09:01:17;96621.78;;;19.78;88.16
56894;BME280;43392;50.078;13.704;2023-07-30T09:03:46;96624.38;;;19.87;88.45
56894;BME280;43392;50.078;13.704;2023-07-30T09:06:14;96619.03;;;19.91;88.32
56894;BME280;43392;50.078;13.704;2023-07-30T09:08:41;96616.53;;;19.98;87.09
56894;BME280;43392;50.078;13.704;2023-07-30T09:11:07;96619.66;;;20.12;86.26
56894;BME280;43392;50.078;13.704;2023-07-30T09:13:37;96623.03;;;20.21;85.59
56894;BME280;43392;50.078;13.704;2023-07-30T09:16:08;96627.16;;;20.27;85.14
56894;BME280;43392;50.078;13.704;2023-07-30T09:18:39;96619.94;;;20.46;84.53
56894;BME280;43392;50.078;13.704;2023-07-30T09:21:07;96624.09;;;20.56;84.61
56894;BME280;43392;50.078;13.704;2023-07-30T09:23:39;96632.69;;;20.58;84.36
56894;BME280;43392;50.078;13.704;2023-07-30T09:26:06;96623.72;;;20.58;84.64
56894;BME280;43392;50.078;13.704;2023-07-30T09:28:33;96620.13;;;20.54;83.83
56894;BME280;43392;50.078;13.704;2023-07-30T09:31:00;96618.72;;;20.60;83.35
56894;BME280;43392;50.078;13.704;2023-07-30T09:33:27;96607.13;;;20.63;83.49
56894;BME280;43392;50.078;13.704;2023-07-30T09:35:53;96613.50;;;20.82;82.68
56894;BME280;43392;50.078;13.704;2023-07-30T09:38:22;96605.53;;;21.05;81.38
56894;BME280;43392;50.078;13.704;2023-07-30T09:40:49;96618.38;;;21.04;79.15
56894;BME280;43392;50.078;13.704;2023-07-30T09:43:16;96606.94;;;20.99;79.62
56894;BME280;43392;50.078;13.704;2023-07-30T09:45:45;96604.63;;;21.01;78.37
56894;BME280;43392;50.078;13.704;2023-07-30T09:48:12;96604.41;;;21.06;78.04
56894;BME280;43392;50.078;13.704;2023-07-30T09:50:38;96608.28;;;21.21;77.81
56894;BME280;43392;50.078;13.704;2023-07-30T09:53:05;96599.81;;;21.41;78.03
56894;BME280;43392;50.078;13.704;2023-07-30T09:55:33;96601.69;;;21.53;77.66
56894;BME280;43392;50.078;13.704;2023-07-30T09:57:59;96597.09;;;21.57;77.30
56894;BME280;43392;50.078;13.704;2023-07-30T10:00:27;96601.25;;;21.51;77.11
56894;BME280;43392;50.078;13.704;2023-07-30T10:02:58;96604.69;;;21.48;77.55
56894;BME280;43392;50.078;13.704;2023-07-30T10:05:28;96612.66;;;21.56;78.20
56894;BME280;43392;50.078;13.704;2023-07-30T10:07:57;96616.44;;;21.52;78.16
56894;BME280;43392;50.078;13.704;2023-07-30T10:10:28;96615.22;;;21.49;78.03
56894;BME280;43392;50.078;13.704;2023-07-30T10:12:59;96601.88;;;21.29;77.64
56894;BME280;43392;50.078;13.704;2023-07-30T10:15:26;96617.34;;;21.25;77.11
56894;BME280;43392;50.078;13.704;2023-07-30T10:17:56;96616.84;;;21.19;77.48
56894;BME280;43392;50.078;13.704;2023-07-30T10:20:24;96620.16;;;21.12;77.85
56894;BME280;43392;50.078;13.704;2023-07-30T10:22:53;96617.44;;;21.12;77.94
56894;BME280;43392;50.078;13.704;2023-07-30T10:25:21;96606.00;;;21.07;78.24
56894;BME280;43392;50.078;13.704;2023-07-30T10:27:50;96611.19;;;21.12;78.87
56894;BME280;43392;50.078;13.704;2023-07-30T10:30:20;96614.09;;;21.19;78.66
56894;BME280;43392;50.078;13.704;2023-07-30T10:33:01;96608.38;;;21.24;78.87
56894;BME280;43392;50.078;13.704;2023-07-30T10:35:39;96610.13;;;21.32;79.15
56894;BME280;43392;50.078;13.704;2023-07-30T10:38:14;96610.03;;;21.44;78.92
56894;BME280;43392;50.078;13.704;2023-07-30T10:40:41;96601.31;;;21.54;78.91
56894;BME280;43392;50.078;13.704;2023-07-30T10:43:14;96607.72;;;21.62;78.56
56894;BME280;43392;50.078;13.704;2023-07-30T10:45:49;96595.75;;;21.66;77.96
56894;BME280;43392;50.078;13.704;2023-07-30T10:48:16;96600.66;;;21.76;78.11
56894;BME280;43392;50.078;13.704;2023-07-30T10:50:43;96597.28;;;21.83;76.97
56894;BME280;43392;50.078;13.704;2023-07-30T10:53:14;96585.47;;;21.95;75.25
56894;BME280;43392;50.078;13.704;2023-07-30T10:55:40;96591.94;;;21.87;72.61
56894;BME280;43392;50.078;13.704;2023-07-30T10:58:07;96581.53;;;21.92;71.99
56894;BME280;43392;50.078;13.704;2023-07-30T11:00:34;96587.66;;;22.05;72.26
56894;BME280;43392;50.078;13.704;2023-07-30T11:03:02;96587.53;;;22.17;71.91
56894;BME280;43392;50.078;13.704;2023-07-30T11:05:29;96585.22;;;22.19;71.66
56894;BME280;43392;50.078;13.704;2023-07-30T11:07:56;96582.72;;;22.10;72.48
56894;BME280;43392;50.078;13.704;2023-07-30T11:10:23;96585.00;;;22.08;72.31
56894;BME280;43392;50.078;13.704;2023-07-30T11:12:49;96588.88;;;22.07;71.78
56894;BME280;43392;50.078;13.704;2023-07-30T11:15:17;96595.13;;;22.08;71.68
56894;BME280;43392;50.078;13.704;2023-07-30T11:17:44;96593.53;;;22.07;71.42
56894;BME280;43392;50.078;13.704;2023-07-30T11:20:23;96595.22;;;22.11;72.07
56894;BME280;43392;50.078;13.704;2023-07-30T11:22:52;96591.28;;;22.09;72.75
56894;BME280;43392;50.078;13.704;2023-07-30T11:25:19;96588.25;;;22.14;73.30
56894;BME280;43392;50.078;13.704;2023-07-30T11:27:46;96590.19;;;22.13;73.06
56894;BME280;43392;50.078;13.704;2023-07-30T11:30:13;96592.03;;;22.09;73.88
56894;BME280;43392;50.078;13.704;2023-07-30T11:32:40;96594.34;;;22.07;74.26
56894;BME280;43392;50.078;13.704;2023-07-30T11:35:07;96608.69;;;22.04;74.07
56894;BME280;43392;50.078;13.704;2023-07-30T11:37:36;96607.56;;;22.05;74.11
56894;BME280;43392;50.078;13.704;2023-07-30T11:40:06;96608.38;;;22.06;74.28
56894;BME280;43392;50.078;13.704;2023-07-30T11:42:33;96604.13;;;22.08;74.25
56894;BME280;43392;50.078;13.704;2023-07-30T11:45:18;96601.13;;;22.13;74.90
56894;BME280;43392;50.078;13.704;2023-07-30T11:47:46;96596.66;;;22.24;74.59
56894;BME280;43392;50.078;13.704;2023-07-30T11:50:12;96596.09;;;22.34;73.87
56894;BME280;43392;50.078;13.704;2023-07-30T11:52:52;96589.63;;;22.42;73.96
56894;BME280;43392;50.078;13.704;2023-07-30T11:55:19;96583.88;;;22.48;73.38
56894;BME280;43392;50.078;13.704;2023-07-30T11:57:46;96574.50;;;22.68;72.27
56894;BME280;43392;50.078;13.704;2023-07-30T12:00:13;96582.19;;;22.81;71.21
56894;BME280;43392;50.078;13.704;2023-07-30T12:02:40;96587.41;;;22.90;70.85
56894;BME280;43392;50.078;13.704;2023-07-30T12:05:10;96590.16;;;22.90;70.88
56894;BME280;43392;50.078;13.704;2023-07-30T12:07:39;96573.75;;;22.90;69.88
56894;BME280;43392;50.078;13.704;2023-07-30T12:10:09;96587.63;;;23.00;70.21
56894;BME280;43392;50.078;13.704;2023-07-30T12:12:36;96579.41;;;23.00;69.28
56894;BME280;43392;50.078;13.704;2023-07-30T12:15:10;96574.06;;;23.07;67.07
56894;BME280;43392;50.078;13.704;2023-07-30T12:17:37;96570.53;;;23.07;67.02
56894;BME280;43392;50.078;13.704;2023-07-30T12:20:04;96566.88;;;23.22;65.46
56894;BME280;43392;50.078;13.704;2023-07-30T12:22:32;96576.41;;;23.32;65.88
56894;BME280;43392;50.078;13.704;2023-07-30T12:24:59;96567.13;;;23.36;65.31
56894;BME280;43392;50.078;13.704;2023-07-30T12:27:27;96557.44;;;23.42;64.74
56894;BME280;43392;50.078;13.704;2023-07-30T12:29:54;96557.94;;;23.48;65.04
56894;BME280;43392;50.078;13.704;2023-07-30T12:32:20;96554.16;;;23.56;64.90
56894;BME280;43392;50.078;13.704;2023-07-30T12:34:47;96562.88;;;23.65;64.21
56894;BME280;43392;50.078;13.704;2023-07-30T12:37:14;96566.88;;;23.71;63.58
56894;BME280;43392;50.078;13.704;2023-07-30T12:39:40;96565.78;;;23.75;62.58
56894;BME280;43392;50.078;13.704;2023-07-30T12:42:07;96560.41;;;23.83;62.35
56894;BME280;43392;50.078;13.704;2023-07-30T12:44:35;96564.03;;;23.90;61.99
56894;BME280;43392;50.078;13.704;2023-07-30T12:47:01;96553.09;;;23.94;61.06
56894;BME280;43392;50.078;13.704;2023-07-30T12:49:28;96551.63;;;24.00;61.70
56894;BME280;43392;50.078;13.704;2023-07-30T12:51:55;96544.56;;;23.99;60.40
56894;BME280;43392;50.078;13.704;2023-07-30T12:54:22;96545.38;;;23.99;60.98